createdAt,value
2018-12-08T08:03:35.910Z,4.40
2018-12-08T08:08:41.637Z,4.20
2018-12-08T08:13:48.490Z,4.60
2018-12-08T08:18:54.006Z,3.87
2018-12-08T08:23:59.108Z,4.10
2018-12-08T08:29:04.738Z,4.50
2018-12-08T08:34:10.146Z,5.00
2018-12-08T08:39:16.178Z,3.80
2018-12-08T08:44:21.352Z,5.23
2018-12-08T08:49:26.174Z,4.60
2018-12-08T08:54:31.425Z,4.00
2018-12-08T08:59:39.080Z,4.47
2018-12-08T09:04:44.058Z,4.73
2018-12-08T09:09:48.967Z,4.47
2018-12-08T09:14:53.862Z,4.40
2018-12-08T09:19:58.691Z,4.40
2018-12-08T09:25:03.788Z,4.50
2018-12-08T09:30:10.608Z,4.37
2018-12-08T09:35:16.622Z,4.57
2018-12-08T09:40:21.643Z,4.13
2018-12-08T09:45:26.618Z,4.70
2018-12-08T09:50:31.630Z,4.60
2018-12-08T09:55:36.463Z,4.10
2018-12-08T10:00:41.528Z,3.67
2018-12-08T10:05:46.362Z,3.73
2018-12-08T10:10:51.178Z,3.30
2018-12-08T10:15:56.110Z,3.87
2018-12-08T10:21:00.967Z,3.17
2018-12-08T10:26:05.786Z,4.03
2018-12-08T10:31:10.661Z,3.77
2018-12-08T10:36:15.634Z,3.87
2018-12-08T10:41:20.662Z,3.50
2018-12-08T10:46:25.542Z,3.57
2018-12-08T10:51:30.351Z,3.50
2018-12-08T10:56:37.294Z,4.07
2018-12-08T11:01:47.527Z,3.87
2018-12-08T11:06:52.462Z,3.33
2018-12-08T11:11:57.658Z,2.90
2018-12-08T11:17:02.464Z,3.80
2018-12-08T11:22:07.613Z,3.03
2018-12-08T11:27:12.474Z,3.57
2018-12-08T11:32:17.319Z,3.50
2018-12-08T11:37:22.200Z,2.57
2018-12-08T11:42:27.099Z,3.13
2018-12-08T11:47:31.956Z,2.80
2018-12-08T11:52:37.313Z,3.03
2018-12-08T11:57:42.208Z,3.20
2018-12-08T12:02:47.155Z,3.00
2018-12-08T12:07:52.154Z,3.47
2018-12-08T12:12:57.419Z,3.23
2018-12-08T12:18:02.274Z,2.93
2018-12-08T12:23:07.185Z,2.93
2018-12-08T12:28:12.127Z,2.97
2018-12-08T12:33:17.078Z,3.77
2018-12-08T12:38:22.130Z,3.87
2018-12-08T12:43:27.346Z,3.03
2018-12-08T12:48:32.245Z,2.80
2018-12-08T12:53:37.093Z,3.73
2018-12-08T12:58:42.090Z,3.57
2018-12-08T13:03:46.882Z,3.60
2018-12-08T13:08:53.375Z,3.13
2018-12-08T13:13:58.523Z,3.07
2018-12-08T13:19:03.420Z,3.70
2018-12-08T13:24:08.274Z,3.83
2018-12-08T13:29:13.187Z,3.13
2018-12-08T13:34:33.289Z,3.23
2018-12-08T13:39:38.366Z,3.20
2018-12-08T13:44:43.468Z,4.00
2018-12-08T13:49:48.426Z,2.90
2018-12-08T13:54:53.395Z,4.03
2018-12-08T13:59:58.391Z,3.60
2018-12-08T14:05:03.835Z,3.87
2018-12-08T14:10:08.958Z,3.60
2018-12-08T14:15:14.210Z,4.13
2018-12-08T14:20:24.037Z,4.47
2018-12-08T14:25:28.875Z,4.37
2018-12-08T14:30:33.689Z,5.30
2018-12-08T14:35:38.783Z,5.30
2018-12-08T14:40:43.658Z,4.53
2018-12-08T14:45:48.609Z,4.40
2018-12-08T14:50:53.527Z,4.80
2018-12-08T14:55:58.314Z,5.10
2018-12-08T15:01:03.234Z,4.90
2018-12-08T15:06:08.042Z,5.00
2018-12-08T15:11:13.462Z,5.07
2018-12-08T15:16:18.536Z,5.30
2018-12-08T15:21:23.858Z,5.87
2018-12-08T15:26:28.809Z,5.10
2018-12-08T15:31:33.643Z,4.50
2018-12-08T15:36:38.562Z,4.93
2018-12-08T15:41:43.635Z,3.47
2018-12-08T15:46:48.534Z,4.60
2018-12-08T15:51:57.162Z,4.13
2018-12-08T15:57:02.022Z,4.00
2018-12-08T16:02:07.098Z,5.43
2018-12-08T16:07:12.100Z,4.77
2018-12-08T16:12:16.920Z,4.13
2018-12-08T16:17:21.787Z,4.20
2018-12-08T16:22:27.008Z,4.30
2018-12-08T16:27:32.018Z,3.93
2018-12-08T16:32:37.425Z,4.13
2018-12-08T16:37:42.393Z,4.90
2018-12-08T16:42:47.262Z,5.27
2018-12-08T16:47:52.067Z,4.80
2018-12-08T16:52:57.199Z,4.60
2018-12-08T16:58:02.121Z,4.57
2018-12-08T17:03:07.061Z,4.67
2018-12-08T17:08:11.949Z,4.70
2018-12-08T17:13:16.795Z,4.50
2018-12-08T17:18:21.573Z,3.90
2018-12-08T17:23:27.013Z,3.63
2018-12-08T17:28:31.962Z,3.47
2018-12-08T17:33:36.779Z,3.73
2018-12-08T17:38:41.749Z,4.10
2018-12-08T17:43:46.741Z,3.80
2018-12-08T17:48:51.697Z,3.80
2018-12-08T17:53:56.604Z,3.70
2018-12-08T17:59:01.455Z,3.40
2018-12-08T18:04:06.464Z,3.20
2018-12-08T18:09:11.634Z,4.40
2018-12-08T18:14:16.533Z,5.00
2018-12-08T18:19:21.387Z,4.50
2018-12-08T18:24:26.272Z,4.03
2018-12-08T18:29:31.270Z,3.63
2018-12-08T18:34:36.165Z,2.73
2018-12-08T18:39:42.089Z,2.27
2018-12-08T18:44:47.021Z,2.33
2018-12-08T18:49:51.924Z,2.50
2018-12-08T18:54:56.762Z,2.43
2018-12-08T19:00:01.582Z,2.37
2018-12-08T19:05:08.456Z,2.00
2018-12-08T19:10:13.625Z,2.10
2018-12-08T19:15:18.579Z,1.93
2018-12-08T19:20:23.484Z,2.30
2018-12-08T19:25:28.364Z,2.50
2018-12-08T19:30:33.279Z,1.90
2018-12-08T19:35:38.191Z,2.10
2018-12-08T19:40:43.127Z,2.30
2018-12-08T19:45:48.014Z,2.50
2018-12-08T19:50:52.970Z,2.70
2018-12-08T19:55:57.854Z,3.10
2018-12-08T20:01:02.810Z,3.27
2018-12-08T20:06:08.990Z,3.47
2018-12-08T20:11:13.929Z,4.23
2018-12-08T20:16:18.893Z,4.73
2018-12-08T20:21:24.033Z,4.07
2018-12-08T20:26:28.815Z,3.80
2018-12-08T20:31:33.722Z,4.47
2018-12-08T20:36:38.567Z,4.57
2018-12-08T20:41:43.366Z,5.30
2018-12-08T20:46:48.234Z,5.63
2018-12-08T20:51:53.098Z,5.40
2018-12-08T20:56:58.155Z,5.70
2018-12-08T21:02:02.950Z,6.57
2018-12-08T21:07:08.793Z,6.43
2018-12-08T21:12:13.823Z,6.27
2018-12-08T21:17:18.857Z,6.40
2018-12-08T21:22:23.824Z,4.70
2018-12-08T21:27:28.686Z,2.63
2018-12-08T21:32:33.600Z,2.47
2018-12-08T21:37:38.875Z,3.50
2018-12-08T21:42:44.868Z,4.30
2018-12-08T21:47:50.231Z,4.60
2018-12-08T21:52:55.211Z,5.97
2018-12-08T21:58:00.739Z,6.70
2018-12-08T22:03:05.695Z,7.77
2018-12-08T22:08:10.470Z,6.70
2018-12-08T22:13:15.421Z,6.13
2018-12-08T22:18:20.244Z,6.90
2018-12-08T22:23:25.199Z,5.92
2018-12-08T22:28:30.096Z,6.93
2018-12-08T22:33:34.999Z,5.47
2018-12-08T22:38:39.947Z,5.10
2018-12-08T22:43:44.813Z,5.27
2018-12-08T22:48:49.758Z,5.00
2018-12-08T22:53:54.557Z,4.63
2018-12-08T22:58:59.537Z,5.30
2018-12-08T23:04:04.630Z,4.13
2018-12-08T23:09:10.627Z,4.80
2018-12-08T23:14:17.451Z,4.07
2018-12-08T23:19:22.521Z,3.40
2018-12-08T23:24:27.394Z,3.70
2018-12-08T23:29:32.419Z,3.73
2018-12-08T23:34:37.988Z,3.87
2018-12-08T23:39:42.951Z,3.60
2018-12-08T23:44:47.980Z,3.20
2018-12-08T23:49:52.934Z,4.40
2018-12-08T23:54:57.765Z,3.93
